الصفحة الرئيسية
METAR-TAF:

METAR-TAF

مطار :

مطار إلدورادو الدولي

بوغوتا, كولومبيا

دائرة عرض: 04-43N, خط طول: 074-09W, ارتفاع: 2547 متر

مراقبة الطقس الحالي

تاريخ ووقت الإصدار 24 دقيقة قبل الساعة 22:00UTC
ريح 7 عقدة من الغرب/الجنوب الغربي
درجة الحرارة 17°درجة مئوية
الرطوبة 63%
ضغط 1023 hPa
الرؤية 10 كم أو أكثر
غيوم متفرقة على ارتفاع 2300 قدم, مزنة ركامية.
غيوم مفككة على ارتفاع 20000 قدم

METAR: SKBO 222200Z 24007KT 9999 SCT023CB BKN200 17/10 A3021 RMK CB N

زمن: 17:24 (22:24 UTC)

توقعات

تاريخ ووقت الإصدار 5ساعات و 24 دقيقة قبل الساعة 17:00UTC
التوقعات صالحة من22 الساعة 18 UTC إلى 23 الساعة 18 UTC
ريح 10 عقدة من الجنوب الشرقي
الرؤية 10 كم أو أكثر
غيوم مفككة على ارتفاع 1700 قدم
نظرية الاحتمالات 40% :
مؤقت
من 22 الساعة 20 UTC إلى 22 الساعة 23 UTC
الرؤية: 6000 متر
رذاذ
أصبح
من 23 الساعة 01 UTC إلى 23 الساعة 02 UTC
ريح 3 عقدةمن اتجاهات متغيرة

TAF: SKBO 221700Z 2218/2318 13010KT 9999 BKN017 PROB40 TEMPO 2220/2223 6000 DZ BECMG 2301/2302 VRB03KT TX20/2218Z TN06/2311Z

أرصاد الطقس والتوقعات من أكثر من 4000 مطار (تقارير الطقس للمطار METAR والتنبؤ بالطقس بالمطارTAF).

المحطات المتاحة هي النقط الصفراء والحمراء على الخريطة.

حرك المؤشر فوق النقطة لمعرفة اسم المحطة.

ثم انقر لمعرفة أرصاد وتوقعات الطقس.

لتغيير الخارطة: اضغط على الأزرار الخضراء مع رمز الصليب الأسود للتكبير. على الزر الأخضر مع شرطة للتصغير، أو على الأسهم الخضراء للخرائط المجاورة.


METAR-TAF: